sensor_id;sensor_type;location;lat;lon;timestamp;noise_LAeq;noise_LA_min;noise_LA_max;noise_LA01;noise_LA95
72686;Laerm;61365;52.162;4.500;2023-02-01T00:00:51;47.55;38.97;57.55;;
72686;Laerm;61365;52.162;4.500;2023-02-01T00:03:18;47.44;40.28;56.89;;
72686;Laerm;61365;52.162;4.500;2023-02-01T00:05:54;47.32;35.43;58.11;;
72686;Laerm;61365;52.162;4.500;2023-02-01T00:08:21;46.79;36.26;55.98;;
72686;Laerm;61365;52.162;4.500;2023-02-01T00:10:47;46.69;35.47;56.44;;
72686;Laerm;61365;52.162;4.500;2023-02-01T00:13:14;47.18;36.22;56.32;;
72686;Laerm;61365;52.162;4.500;2023-02-01T00:15:40;47.31;39.12;60.50;;
72686;Laerm;61365;52.162;4.500;2023-02-01T00:18:06;47.22;34.87;56.02;;
72686;Laerm;61365;52.162;4.500;2023-02-01T00:20:33;47.36;39.62;57.03;;
72686;Laerm;61365;52.162;4.500;2023-02-01T00:22:59;47.35;38.78;61.48;;
72686;Laerm;61365;52.162;4.500;2023-02-01T00:25:25;47.36;39.92;56.90;;
72686;Laerm;61365;52.162;4.500;2023-02-01T00:27:52;47.41;40.11;56.41;;
72686;Laerm;61365;52.162;4.500;2023-02-01T00:30:18;47.36;39.14;57.49;;
72686;Laerm;61365;52.162;4.500;2023-02-01T00:32:45;47.34;38.30;58.20;;
72686;Laerm;61365;52.162;4.500;2023-02-01T00:35:11;47.24;37.98;56.81;;
72686;Laerm;61365;52.162;4.500;2023-02-01T00:37:37;47.35;39.94;59.99;;
72686;Laerm;61365;52.162;4.500;2023-02-01T00:40:04;47.49;39.48;58.81;;
72686;Laerm;61365;52.162;4.500;2023-02-01T00:42:31;47.51;40.66;57.10;;
72686;Laerm;61365;52.162;4.500;2023-02-01T00:44:57;47.37;39.40;57.37;;
72686;Laerm;61365;52.162;4.500;2023-02-01T00:47:24;47.37;38.86;56.74;;
72686;Laerm;61365;52.162;4.500;2023-02-01T00:49:50;47.28;39.70;57.01;;
72686;Laerm;61365;52.162;4.500;2023-02-01T00:52:17;47.21;39.97;56.65;;
72686;Laerm;61365;52.162;4.500;2023-02-01T00:54:44;47.26;37.14;57.73;;
72686;Laerm;61365;52.162;4.500;2023-02-01T00:57:10;47.30;39.58;62.66;;
72686;Laerm;61365;52.162;4.500;2023-02-01T00:59:36;47.14;39.51;58.45;;
72686;Laerm;61365;52.162;4.500;2023-02-01T01:02:03;47.15;39.73;57.79;;
72686;Laerm;61365;52.162;4.500;2023-02-01T01:04:29;47.26;38.49;57.64;;
72686;Laerm;61365;52.162;4.500;2023-02-01T01:06:56;47.13;37.15;57.83;;
72686;Laerm;61365;52.162;4.500;2023-02-01T01:09:22;47.27;38.01;62.66;;
72686;Laerm;61365;52.162;4.500;2023-02-01T01:11:48;47.12;39.30;59.80;;
72686;Laerm;61365;52.162;4.500;2023-02-01T01:14:17;47.21;39.17;59.34;;
72686;Laerm;61365;52.162;4.500;2023-02-01T01:16:43;47.22;39.41;58.51;;
72686;Laerm;61365;52.162;4.500;2023-02-01T01:19:09;47.18;39.99;58.80;;
72686;Laerm;61365;52.162;4.500;2023-02-01T01:21:36;47.01;39.76;58.49;;
72686;Laerm;61365;52.162;4.500;2023-02-01T01:24:03;47.23;37.40;56.47;;
72686;Laerm;61365;52.162;4.500;2023-02-01T01:26:29;47.20;38.92;56.70;;
72686;Laerm;61365;52.162;4.500;2023-02-01T01:28:58;47.11;40.26;57.17;;
72686;Laerm;61365;52.162;4.500;2023-02-01T01:31:26;47.02;38.41;57.34;;
72686;Laerm;61365;52.162;4.500;2023-02-01T01:33:56;46.99;40.07;58.98;;
72686;Laerm;61365;52.162;4.500;2023-02-01T01:36:23;47.03;40.43;57.37;;
72686;Laerm;61365;52.162;4.500;2023-02-01T01:38:50;47.05;40.39;60.97;;
72686;Laerm;61365;52.162;4.500;2023-02-01T01:41:24;47.03;40.35;57.61;;
72686;Laerm;61365;52.162;4.500;2023-02-01T01:43:59;47.25;40.27;62.78;;
72686;Laerm;61365;52.162;4.500;2023-02-01T01:46:36;46.84;37.37;57.15;;
72686;Laerm;61365;52.162;4.500;2023-02-01T01:49:20;47.19;39.55;58.03;;
72686;Laerm;61365;52.162;4.500;2023-02-01T01:52:00;47.13;39.45;57.19;;
72686;Laerm;61365;52.162;4.500;2023-02-01T01:54:33;47.17;39.94;56.73;;
72686;Laerm;61365;52.162;4.500;2023-02-01T01:57:11;47.14;39.26;57.33;;
72686;Laerm;61365;52.162;4.500;2023-02-01T01:59:46;47.15;39.79;57.37;;
72686;Laerm;61365;52.162;4.500;2023-02-01T02:02:16;47.17;39.12;57.83;;
72686;Laerm;61365;52.162;4.500;2023-02-01T02:04:42;47.18;38.21;57.42;;
72686;Laerm;61365;52.162;4.500;2023-02-01T02:07:21;47.20;39.03;61.86;;
72686;Laerm;61365;52.162;4.500;2023-02-01T02:09:49;47.07;39.29;58.36;;
72686;Laerm;61365;52.162;4.500;2023-02-01T02:12:15;47.05;40.01;59.46;;
72686;Laerm;61365;52.162;4.500;2023-02-01T02:14:42;47.12;40.31;58.88;;
72686;Laerm;61365;52.162;4.500;2023-02-01T02:17:39;47.10;38.88;56.36;;
72686;Laerm;61365;52.162;4.500;2023-02-01T02:29:35;47.10;39.08;56.68;;
72686;Laerm;61365;52.162;4.500;2023-02-01T02:38:35;47.07;38.52;57.41;;
72686;Laerm;61365;52.162;4.500;2023-02-01T02:44:28;47.04;39.80;57.62;;
72686;Laerm;61365;52.162;4.500;2023-02-01T02:47:32;47.06;39.04;57.08;;
72686;Laerm;61365;52.162;4.500;2023-02-01T02:53:00;47.10;40.04;62.51;;
72686;Laerm;61365;52.162;4.500;2023-02-01T02:55:47;47.04;40.14;57.22;;
72686;Laerm;61365;52.162;4.500;2023-02-01T02:58:16;47.09;36.59;57.81;;
72686;Laerm;61365;52.162;4.500;2023-02-01T03:01:03;47.04;39.52;58.75;;
72686;Laerm;61365;52.162;4.500;2023-02-01T03:03:49;47.07;39.50;57.66;;
72686;Laerm;61365;52.162;4.500;2023-02-01T03:06:34;47.15;40.37;59.29;;
72686;Laerm;61365;52.162;4.500;2023-02-01T03:09:12;47.16;39.88;59.54;;
72686;Laerm;61365;52.162;4.500;2023-02-01T03:11:45;47.14;39.14;57.66;;
72686;Laerm;61365;52.162;4.500;2023-02-01T03:14:36;47.23;40.38;57.69;;
72686;Laerm;61365;52.162;4.500;2023-02-01T03:17:13;47.07;37.83;57.60;;
72686;Laerm;61365;52.162;4.500;2023-02-01T03:19:46;47.19;37.50;57.56;;
72686;Laerm;61365;52.162;4.500;2023-02-01T03:22:22;47.05;39.67;57.89;;
72686;Laerm;61365;52.162;4.500;2023-02-01T03:25:03;47.13;39.24;57.58;;
72686;Laerm;61365;52.162;4.500;2023-02-01T03:27:42;47.08;37.46;57.90;;
72686;Laerm;61365;52.162;4.500;2023-02-01T03:30:23;47.01;37.51;60.77;;
72686;Laerm;61365;52.162;4.500;2023-02-01T03:32:59;46.99;40.07;63.29;;
72686;Laerm;61365;52.162;4.500;2023-02-01T03:35:37;47.12;37.47;57.70;;
72686;Laerm;61365;52.162;4.500;2023-02-01T03:41:14;46.90;39.30;56.79;;
72686;Laerm;61365;52.162;4.500;2023-02-01T03:46:35;47.03;38.60;58.62;;
72686;Laerm;61365;52.162;4.500;2023-02-01T03:49:09;46.99;39.14;60.78;;
72686;Laerm;61365;52.162;4.500;2023-02-01T03:51:38;46.95;38.64;59.96;;
72686;Laerm;61365;52.162;4.500;2023-02-01T03:54:12;46.88;40.01;56.74;;
72686;Laerm;61365;52.162;4.500;2023-02-01T03:56:43;46.95;40.36;58.12;;
72686;Laerm;61365;52.162;4.500;2023-02-01T03:59:12;46.93;39.46;57.67;;
72686;Laerm;61365;52.162;4.500;2023-02-01T04:01:38;47.05;40.72;57.39;;
72686;Laerm;61365;52.162;4.500;2023-02-01T04:04:05;47.06;38.78;57.03;;
72686;Laerm;61365;52.162;4.500;2023-02-01T04:06:32;47.13;38.22;57.53;;
72686;Laerm;61365;52.162;4.500;2023-02-01T04:08:58;47.12;39.67;56.72;;
72686;Laerm;61365;52.162;4.500;2023-02-01T04:11:24;47.10;39.45;58.16;;
72686;Laerm;61365;52.162;4.500;2023-02-01T04:13:53;47.09;40.49;56.53;;
72686;Laerm;61365;52.162;4.500;2023-02-01T04:16:19;47.11;39.09;58.65;;
72686;Laerm;61365;52.162;4.500;2023-02-01T04:18:46;47.07;38.88;57.64;;
72686;Laerm;61365;52.162;4.500;2023-02-01T04:21:12;47.06;37.81;57.98;;
72686;Laerm;61365;52.162;4.500;2023-02-01T04:23:38;47.31;38.98;59.79;;
72686;Laerm;61365;52.162;4.500;2023-02-01T04:26:05;47.13;38.86;57.83;;
72686;Laerm;61365;52.162;4.500;2023-02-01T04:28:31;46.94;40.44;57.79;;
72686;Laerm;61365;52.162;4.500;2023-02-01T04:30:58;47.01;39.41;57.83;;
72686;Laerm;61365;52.162;4.500;2023-02-01T04:33:24;47.20;37.99;59.91;;
72686;Laerm;61365;52.162;4.500;2023-02-01T04:35:51;47.15;39.20;56.93;;
72686;Laerm;61365;52.162;4.500;2023-02-01T04:38:17;47.17;39.46;57.44;;
72686;Laerm;61365;52.162;4.500;2023-02-01T04:40:49;46.99;39.25;57.87;;
72686;Laerm;61365;52.162;4.500;2023-02-01T04:43:17;47.12;37.62;58.65;;
72686;Laerm;61365;52.162;4.500;2023-02-01T04:45:48;46.97;40.06;57.01;;
72686;Laerm;61365;52.162;4.500;2023-02-01T04:48:16;47.21;38.27;61.85;;
72686;Laerm;61365;52.162;4.500;2023-02-01T04:50:46;47.07;39.70;58.03;;
72686;Laerm;61365;52.162;4.500;2023-02-01T04:53:17;47.20;39.08;57.27;;
72686;Laerm;61365;52.162;4.500;2023-02-01T04:55:44;47.17;39.61;58.04;;
72686;Laerm;61365;52.162;4.500;2023-02-01T04:58:11;47.08;38.68;58.05;;
72686;Laerm;61365;52.162;4.500;2023-02-01T05:00:37;47.19;40.52;59.54;;
72686;Laerm;61365;52.162;4.500;2023-02-01T05:03:04;47.07;39.27;57.33;;
72686;Laerm;61365;52.162;4.500;2023-02-01T05:05:30;47.14;37.85;61.62;;
72686;Laerm;61365;52.162;4.500;2023-02-01T05:07:56;47.09;40.16;62.29;;
72686;Laerm;61365;52.162;4.500;2023-02-01T05:10:23;47.18;40.04;57.54;;
72686;Laerm;61365;52.162;4.500;2023-02-01T05:12:49;47.21;39.99;62.38;;
72686;Laerm;61365;52.162;4.500;2023-02-01T05:15:34;47.14;39.44;59.53;;
72686;Laerm;61365;52.162;4.500;2023-02-01T05:18:01;47.13;38.16;59.41;;
72686;Laerm;61365;52.162;4.500;2023-02-01T05:20:27;47.12;39.68;57.72;;
72686;Laerm;61365;52.162;4.500;2023-02-01T05:22:53;47.22;39.78;57.11;;
72686;Laerm;61365;52.162;4.500;2023-02-01T05:25:20;47.29;36.78;59.86;;
72686;Laerm;61365;52.162;4.500;2023-02-01T05:27:46;47.07;38.95;57.55;;
72686;Laerm;61365;52.162;4.500;2023-02-01T05:30:13;46.93;39.52;57.79;;
72686;Laerm;61365;52.162;4.500;2023-02-01T05:32:39;46.95;39.62;57.72;;
72686;Laerm;61365;52.162;4.500;2023-02-01T05:35:06;47.13;39.03;56.97;;
72686;Laerm;61365;52.162;4.500;2023-02-01T05:37:33;47.10;40.14;57.45;;
72686;Laerm;61365;52.162;4.500;2023-02-01T05:39:59;47.15;39.28;56.81;;
72686;Laerm;61365;52.162;4.500;2023-02-01T05:42:25;47.07;38.95;60.47;;
72686;Laerm;61365;52.162;4.500;2023-02-01T05:44:52;47.12;39.26;57.10;;
72686;Laerm;61365;52.162;4.500;2023-02-01T05:47:18;47.07;38.24;58.57;;
72686;Laerm;61365;52.162;4.500;2023-02-01T05:49:46;47.02;39.81;58.30;;
72686;Laerm;61365;52.162;4.500;2023-02-01T05:52:12;47.11;39.45;60.07;;
72686;Laerm;61365;52.162;4.500;2023-02-01T05:54:38;47.23;40.63;58.88;;
72686;Laerm;61365;52.162;4.500;2023-02-01T05:57:05;47.18;40.10;57.74;;
72686;Laerm;61365;52.162;4.500;2023-02-01T05:59:31;47.00;40.29;61.97;;
72686;Laerm;61365;52.162;4.500;2023-02-01T06:01:57;47.06;40.54;57.43;;
72686;Laerm;61365;52.162;4.500;2023-02-01T06:04:24;47.17;40.57;57.60;;
72686;Laerm;61365;52.162;4.500;2023-02-01T06:06:50;47.05;38.76;57.76;;
72686;Laerm;61365;52.162;4.500;2023-02-01T06:09:17;47.08;37.15;59.06;;
72686;Laerm;61365;52.162;4.500;2023-02-01T06:11:43;47.11;40.15;59.60;;
72686;Laerm;61365;52.162;4.500;2023-02-01T06:14:09;47.06;39.12;57.91;;
72686;Laerm;61365;52.162;4.500;2023-02-01T06:16:36;47.02;39.52;60.27;;
72686;Laerm;61365;52.162;4.500;2023-02-01T06:19:02;47.05;40.67;57.58;;
72686;Laerm;61365;52.162;4.500;2023-02-01T06:21:28;47.03;37.66;57.63;;
72686;Laerm;61365;52.162;4.500;2023-02-01T06:23:55;46.97;38.86;58.69;;
72686;Laerm;61365;52.162;4.500;2023-02-01T06:26:23;47.06;39.84;63.90;;
72686;Laerm;61365;52.162;4.500;2023-02-01T06:28:50;46.99;37.74;58.21;;
72686;Laerm;61365;52.162;4.500;2023-02-01T06:31:16;47.09;38.14;57.56;;
72686;Laerm;61365;52.162;4.500;2023-02-01T06:33:42;47.17;39.42;57.61;;
72686;Laerm;61365;52.162;4.500;2023-02-01T06:36:10;46.95;38.60;57.53;;
72686;Laerm;61365;52.162;4.500;2023-02-01T06:38:38;46.90;38.98;58.15;;
72686;Laerm;61365;52.162;4.500;2023-02-01T06:41:05;47.04;37.97;57.44;;
72686;Laerm;61365;52.162;4.500;2023-02-01T06:43:32;47.18;39.05;58.53;;
72686;Laerm;61365;52.162;4.500;2023-02-01T06:46:04;47.27;40.06;61.81;;
72686;Laerm;61365;52.162;4.500;2023-02-01T06:48:31;47.22;40.11;62.83;;
72686;Laerm;61365;52.162;4.500;2023-02-01T06:50:58;47.17;39.97;58.50;;
72686;Laerm;61365;52.162;4.500;2023-02-01T06:53:25;47.05;39.29;57.92;;
72686;Laerm;61365;52.162;4.500;2023-02-01T06:55:59;47.11;35.95;57.58;;
72686;Laerm;61365;52.162;4.500;2023-02-01T06:58:32;47.03;39.10;57.75;;
72686;Laerm;61365;52.162;4.500;2023-02-01T07:01:06;46.98;38.79;58.22;;
72686;Laerm;61365;52.162;4.500;2023-02-01T07:03:32;47.00;38.31;58.18;;
72686;Laerm;61365;52.162;4.500;2023-02-01T07:05:59;47.03;38.68;58.17;;
72686;Laerm;61365;52.162;4.500;2023-02-01T07:08:30;47.09;39.74;57.37;;
72686;Laerm;61365;52.162;4.500;2023-02-01T07:10:56;47.16;40.48;65.56;;
72686;Laerm;61365;52.162;4.500;2023-02-01T07:13:23;47.18;39.12;57.83;;
72686;Laerm;61365;52.162;4.500;2023-02-01T07:15:49;47.28;40.44;59.88;;
72686;Laerm;61365;52.162;4.500;2023-02-01T07:18:16;47.08;39.60;56.79;;
72686;Laerm;61365;52.162;4.500;2023-02-01T07:20:42;47.10;38.87;58.39;;
72686;Laerm;61365;52.162;4.500;2023-02-01T07:23:10;47.24;39.47;62.75;;
72686;Laerm;61365;52.162;4.500;2023-02-01T07:25:36;47.15;39.92;57.31;;
72686;Laerm;61365;52.162;4.500;2023-02-01T07:28:03;47.13;40.56;57.19;;
72686;Laerm;61365;52.162;4.500;2023-02-01T07:30:29;47.19;39.61;57.32;;
72686;Laerm;61365;52.162;4.500;2023-02-01T07:32:56;47.11;39.81;58.02;;
72686;Laerm;61365;52.162;4.500;2023-02-01T07:35:25;47.21;37.88;57.15;;
72686;Laerm;61365;52.162;4.500;2023-02-01T07:37:51;47.22;38.47;60.82;;
72686;Laerm;61365;52.162;4.500;2023-02-01T07:40:18;47.16;40.23;59.22;;
72686;Laerm;61365;52.162;4.500;2023-02-01T07:42:44;47.09;39.27;57.13;;
72686;Laerm;61365;52.162;4.500;2023-02-01T07:45:11;47.23;38.47;58.07;;
72686;Laerm;61365;52.162;4.500;2023-02-01T07:47:39;47.17;38.84;58.99;;
72686;Laerm;61365;52.162;4.500;2023-02-01T07:50:06;47.09;40.15;58.76;;
72686;Laerm;61365;52.162;4.500;2023-02-01T07:52:33;47.20;40.49;61.52;;
72686;Laerm;61365;52.162;4.500;2023-02-01T07:54:59;47.04;39.19;57.34;;
72686;Laerm;61365;52.162;4.500;2023-02-01T07:57:25;47.13;40.17;58.01;;
72686;Laerm;61365;52.162;4.500;2023-02-01T07:59:52;47.19;40.16;62.31;;
72686;Laerm;61365;52.162;4.500;2023-02-01T08:02:40;47.12;39.84;56.97;;
72686;Laerm;61365;52.162;4.500;2023-02-01T08:05:07;47.12;39.23;61.52;;
72686;Laerm;61365;52.162;4.500;2023-02-01T08:07:33;47.15;39.83;59.11;;
72686;Laerm;61365;52.162;4.500;2023-02-01T08:10:00;47.12;38.20;62.59;;
72686;Laerm;61365;52.162;4.500;2023-02-01T08:12:27;47.01;40.08;59.52;;
72686;Laerm;61365;52.162;4.500;2023-02-01T08:14:54;47.15;39.90;61.97;;
72686;Laerm;61365;52.162;4.500;2023-02-01T08:17:22;47.11;40.53;57.36;;
72686;Laerm;61365;52.162;4.500;2023-02-01T08:19:48;47.05;37.88;59.86;;
72686;Laerm;61365;52.162;4.500;2023-02-01T08:22:15;47.01;39.84;57.15;;
72686;Laerm;61365;52.162;4.500;2023-02-01T08:24:41;47.09;39.41;61.62;;
72686;Laerm;61365;52.162;4.500;2023-02-01T08:27:08;47.12;39.13;61.47;;
72686;Laerm;61365;52.162;4.500;2023-02-01T08:29:34;47.16;39.97;56.87;;
72686;Laerm;61365;52.162;4.500;2023-02-01T08:32:00;47.10;40.59;56.24;;
72686;Laerm;61365;52.162;4.500;2023-02-01T08:34:27;47.19;39.83;57.50;;
72686;Laerm;61365;52.162;4.500;2023-02-01T08:36:53;47.24;36.99;57.80;;
72686;Laerm;61365;52.162;4.500;2023-02-01T08:39:26;47.23;39.83;57.36;;
72686;Laerm;61365;52.162;4.500;2023-02-01T08:41:53;47.11;38.13;56.42;;
72686;Laerm;61365;52.162;4.500;2023-02-01T08:44:37;47.18;39.03;56.92;;
72686;Laerm;61365;52.162;4.500;2023-02-01T08:47:04;47.13;40.04;58.25;;
72686;Laerm;61365;52.162;4.500;2023-02-01T08:49:33;47.12;39.21;58.03;;
72686;Laerm;61365;52.162;4.500;2023-02-01T08:51:59;47.07;39.07;57.68;;
72686;Laerm;61365;52.162;4.500;2023-02-01T08:54:25;47.13;37.14;56.84;;
72686;Laerm;61365;52.162;4.500;2023-02-01T08:56:52;47.17;40.42;57.26;;
72686;Laerm;61365;52.162;4.500;2023-02-01T08:59:19;47.11;40.16;56.93;;
72686;Laerm;61365;52.162;4.500;2023-02-01T09:01:46;47.26;39.97;58.09;;
72686;Laerm;61365;52.162;4.500;2023-02-01T09:04:12;47.33;40.73;57.22;;
72686;Laerm;61365;52.162;4.500;2023-02-01T09:06:40;47.26;40.87;57.38;;
72686;Laerm;61365;52.162;4.500;2023-02-01T09:09:07;47.24;40.46;57.37;;
72686;Laerm;61365;52.162;4.500;2023-02-01T09:11:34;47.23;40.92;58.07;;
72686;Laerm;61365;52.162;4.500;2023-02-01T09:14:00;47.43;36.06;59.71;;
72686;Laerm;61365;52.162;4.500;2023-02-01T09:16:27;47.24;36.09;58.30;;
72686;Laerm;61365;52.162;4.500;2023-02-01T09:18:53;47.29;35.55;56.17;;
72686;Laerm;61365;52.162;4.500;2023-02-01T09:21:19;47.26;36.30;60.67;;
72686;Laerm;61365;52.162;4.500;2023-02-01T09:23:46;47.32;40.45;57.63;;
72686;Laerm;61365;52.162;4.500;2023-02-01T09:26:14;47.32;39.70;57.47;;
72686;Laerm;61365;52.162;4.500;2023-02-01T09:28:41;47.39;40.34;63.13;;
72686;Laerm;61365;52.162;4.500;2023-02-01T09:31:07;47.26;39.27;57.55;;
72686;Laerm;61365;52.162;4.500;2023-02-01T09:33:33;47.13;39.54;57.24;;
72686;Laerm;61365;52.162;4.500;2023-02-01T09:36:03;47.35;40.32;59.44;;
72686;Laerm;61365;52.162;4.500;2023-02-01T09:38:32;47.31;39.62;57.79;;
72686;Laerm;61365;52.162;4.500;2023-02-01T09:40:58;47.25;40.39;57.67;;
72686;Laerm;61365;52.162;4.500;2023-02-01T09:43:56;47.28;37.31;58.21;;
72686;Laerm;61365;52.162;4.500;2023-02-01T09:46:32;47.17;40.08;57.37;;
72686;Laerm;61365;52.162;4.500;2023-02-01T09:49:18;47.25;39.57;56.93;;
72686;Laerm;61365;52.162;4.500;2023-02-01T09:51:49;47.21;37.62;58.68;;
72686;Laerm;61365;52.162;4.500;2023-02-01T09:54:29;47.40;39.56;58.59;;
72686;Laerm;61365;52.162;4.500;2023-02-01T09:57:10;47.29;38.68;58.28;;
72686;Laerm;61365;52.162;4.500;2023-02-01T10:00:04;47.17;40.35;62.16;;
72686;Laerm;61365;52.162;4.500;2023-02-01T10:02:39;47.14;39.40;58.75;;
72686;Laerm;61365;52.162;4.500;2023-02-01T10:05:13;47.30;38.69;61.42;;
72686;Laerm;61365;52.162;4.500;2023-02-01T10:10:47;47.23;40.80;58.75;;
72686;Laerm;61365;52.162;4.500;2023-02-01T10:13:33;47.28;37.74;60.14;;
72686;Laerm;61365;52.162;4.500;2023-02-01T10:16:43;47.27;39.55;57.82;;
72686;Laerm;61365;52.162;4.500;2023-02-01T10:23:34;47.26;39.80;57.02;;
72686;Laerm;61365;52.162;4.500;2023-02-01T10:28:37;47.17;39.17;60.99;;
72686;Laerm;61365;52.162;4.500;2023-02-01T10:31:09;47.13;36.81;57.57;;
72686;Laerm;61365;52.162;4.500;2023-02-01T10:33:49;47.21;40.94;59.61;;
72686;Laerm;61365;52.162;4.500;2023-02-01T10:36:28;47.16;39.46;57.11;;
72686;Laerm;61365;52.162;4.500;2023-02-01T10:39:02;47.25;39.33;56.76;;
72686;Laerm;61365;52.162;4.500;2023-02-01T10:41:36;47.19;39.04;56.90;;
72686;Laerm;61365;52.162;4.500;2023-02-01T10:44:14;47.28;39.59;58.27;;
72686;Laerm;61365;52.162;4.500;2023-02-01T10:46:41;47.31;38.90;61.79;;
72686;Laerm;61365;52.162;4.500;2023-02-01T10:49:20;47.25;39.40;56.57;;
72686;Laerm;61365;52.162;4.500;2023-02-01T10:54:42;47.26;39.24;56.88;;
72686;Laerm;61365;52.162;4.500;2023-02-01T10:57:20;47.39;39.23;61.29;;
72686;Laerm;61365;52.162;4.500;2023-02-01T10:59:47;47.23;39.35;56.59;;
72686;Laerm;61365;52.162;4.500;2023-02-01T11:02:30;47.36;39.55;56.58;;
72686;Laerm;61365;52.162;4.500;2023-02-01T11:05:04;47.41;39.41;58.15;;
72686;Laerm;61365;52.162;4.500;2023-02-01T11:07:32;47.32;40.45;56.92;;
72686;Laerm;61365;52.162;4.500;2023-02-01T11:09:58;47.38;39.53;59.26;;
72686;Laerm;61365;52.162;4.500;2023-02-01T11:12:37;47.40;39.59;57.89;;
72686;Laerm;61365;52.162;4.500;2023-02-01T11:15:18;47.40;34.96;58.07;;
72686;Laerm;61365;52.162;4.500;2023-02-01T11:17:48;46.73;37.08;59.40;;
72686;Laerm;61365;52.162;4.500;2023-02-01T11:20:25;47.16;35.87;55.97;;
72686;Laerm;61365;52.162;4.500;2023-02-01T11:22:59;47.42;38.12;57.63;;
72686;Laerm;61365;52.162;4.500;2023-02-01T11:25:27;47.35;39.77;57.53;;
72686;Laerm;61365;52.162;4.500;2023-02-01T11:27:55;47.48;39.41;58.12;;
72686;Laerm;61365;52.162;4.500;2023-02-01T11:30:35;47.40;36.18;61.71;;
72686;Laerm;61365;52.162;4.500;2023-02-01T11:33:05;47.32;40.38;57.68;;
72686;Laerm;61365;52.162;4.500;2023-02-01T11:35:32;47.15;38.86;57.67;;
72686;Laerm;61365;52.162;4.500;2023-02-01T11:38:18;47.34;36.64;56.86;;
72686;Laerm;61365;52.162;4.500;2023-02-01T11:40:46;46.75;36.50;61.47;;
72686;Laerm;61365;52.162;4.500;2023-02-01T11:43:23;46.68;36.79;55.87;;
72686;Laerm;61365;52.162;4.500;2023-02-01T11:46:02;47.13;35.37;55.75;;
72686;Laerm;61365;52.162;4.500;2023-02-01T11:48:33;47.41;38.55;57.43;;
72686;Laerm;61365;52.162;4.500;2023-02-01T11:51:27;47.33;39.38;56.32;;
72686;Laerm;61365;52.162;4.500;2023-02-01T11:54:08;47.27;38.05;56.43;;
72686;Laerm;61365;52.162;4.500;2023-02-01T11:56:57;47.37;38.11;57.67;;
72686;Laerm;61365;52.162;4.500;2023-02-01T12:06:04;47.37;38.98;57.71;;
72686;Laerm;61365;52.162;4.500;2023-02-01T12:17:44;46.65;36.95;59.00;;
72686;Laerm;61365;52.162;4.500;2023-02-01T12:20:24;46.81;35.68;56.30;;
72686;Laerm;61365;52.162;4.500;2023-02-01T12:29:26;47.27;39.66;57.70;;
72686;Laerm;61365;52.162;4.500;2023-02-01T12:32:13;47.09;38.85;57.01;;
72686;Laerm;61365;52.162;4.500;2023-02-01T12:38:20;47.30;39.24;61.42;;
72686;Laerm;61365;52.162;4.500;2023-02-01T12:46:54;47.35;38.95;59.67;;
72686;Laerm;61365;52.162;4.500;2023-02-01T12:52:18;47.48;38.84;57.01;;
72686;Laerm;61365;52.162;4.500;2023-02-01T12:54:58;47.37;39.74;57.27;;
72686;Laerm;61365;52.162;4.500;2023-02-01T12:57:39;47.25;33.49;63.20;;
72686;Laerm;61365;52.162;4.500;2023-02-01T13:03:50;47.52;34.66;55.84;;
72686;Laerm;61365;52.162;4.500;2023-02-01T13:11:54;47.16;35.88;55.84;;
72686;Laerm;61365;52.162;4.500;2023-02-01T13:14:52;47.20;35.80;55.80;;
72686;Laerm;61365;52.162;4.500;2023-02-01T13:17:25;47.60;34.75;56.15;;
72686;Laerm;61365;52.162;4.500;2023-02-01T13:20:04;47.59;35.26;55.48;;
72686;Laerm;61365;52.162;4.500;2023-02-01T13:22:45;47.56;34.95;56.07;;
72686;Laerm;61365;52.162;4.500;2023-02-01T13:25:23;47.47;35.59;56.80;;
72686;Laerm;61365;52.162;4.500;2023-02-01T13:27:56;47.43;36.12;59.83;;
72686;Laerm;61365;52.162;4.500;2023-02-01T13:33:49;47.51;35.58;60.34;;
72686;Laerm;61365;52.162;4.500;2023-02-01T13:42:21;47.42;38.99;57.43;;
72686;Laerm;61365;52.162;4.500;2023-02-01T13:45:03;47.29;39.96;55.99;;
72686;Laerm;61365;52.162;4.500;2023-02-01T13:47:42;47.34;40.17;60.01;;
72686;Laerm;61365;52.162;4.500;2023-02-01T13:52:58;47.33;38.74;56.42;;
72686;Laerm;61365;52.162;4.500;2023-02-01T13:55:36;47.37;38.70;56.59;;
72686;Laerm;61365;52.162;4.500;2023-02-01T13:58:21;47.37;39.47;57.87;;
72686;Laerm;61365;52.162;4.500;2023-02-01T14:00:49;47.45;39.57;58.28;;
72686;Laerm;61365;52.162;4.500;2023-02-01T14:03:44;47.43;39.10;61.31;;
72686;Laerm;61365;52.162;4.500;2023-02-01T14:06:35;47.33;38.28;61.73;;
72686;Laerm;61365;52.162;4.500;2023-02-01T14:09:34;47.27;37.66;56.37;;
72686;Laerm;61365;52.162;4.500;2023-02-01T14:12:47;47.44;35.45;56.63;;
72686;Laerm;61365;52.162;4.500;2023-02-01T14:17:49;47.48;36.05;61.23;;
72686;Laerm;61365;52.162;4.500;2023-02-01T14:20:44;47.52;35.51;61.39;;
72686;Laerm;61365;52.162;4.500;2023-02-01T14:23:18;47.58;34.47;55.68;;
72686;Laerm;61365;52.162;4.500;2023-02-01T14:25:59;47.51;35.76;57.20;;
72686;Laerm;61365;52.162;4.500;2023-02-01T14:28:30;47.44;35.86;56.31;;
72686;Laerm;61365;52.162;4.500;2023-02-01T14:30:58;47.48;35.40;56.42;;
72686;Laerm;61365;52.162;4.500;2023-02-01T14:33:27;47.04;33.66;62.53;;
72686;Laerm;61365;52.162;4.500;2023-02-01T14:36:08;47.16;35.21;61.65;;
72686;Laerm;61365;52.162;4.500;2023-02-01T14:38:37;47.24;39.97;56.71;;
72686;Laerm;61365;52.162;4.500;2023-02-01T14:41:34;47.39;38.96;60.81;;
72686;Laerm;61365;52.162;4.500;2023-02-01T14:47:25;47.36;35.83;56.57;;
72686;Laerm;61365;52.162;4.500;2023-02-01T14:50:12;47.30;39.12;56.73;;
72686;Laerm;61365;52.162;4.500;2023-02-01T14:52:45;47.39;39.32;57.16;;
72686;Laerm;61365;52.162;4.500;2023-02-01T14:55:21;47.43;39.48;56.62;;
72686;Laerm;61365;52.162;4.500;2023-02-01T14:57:54;47.35;39.58;56.43;;
72686;Laerm;61365;52.162;4.500;2023-02-01T15:00:29;47.38;40.17;56.64;;
72686;Laerm;61365;52.162;4.500;2023-02-01T15:05:59;47.29;35.01;59.87;;
72686;Laerm;61365;52.162;4.500;2023-02-01T15:08:39;47.07;35.70;59.97;;
72686;Laerm;61365;52.162;4.500;2023-02-01T15:11:14;47.48;35.41;56.95;;
72686;Laerm;61365;52.162;4.500;2023-02-01T15:13:49;47.36;35.11;56.93;;
72686;Laerm;61365;52.162;4.500;2023-02-01T15:16:17;47.40;39.62;62.68;;
72686;Laerm;61365;52.162;4.500;2023-02-01T15:18:43;47.28;37.91;62.18;;
72686;Laerm;61365;52.162;4.500;2023-02-01T15:21:23;47.43;39.82;61.06;;
72686;Laerm;61365;52.162;4.500;2023-02-01T15:24:19;47.32;39.70;59.71;;
72686;Laerm;61365;52.162;4.500;2023-02-01T15:26:47;47.30;40.37;59.11;;
72686;Laerm;61365;52.162;4.500;2023-02-01T15:29:14;47.49;38.14;63.04;;
72686;Laerm;61365;52.162;4.500;2023-02-01T15:31:45;47.42;35.31;56.85;;
72686;Laerm;61365;52.162;4.500;2023-02-01T15:34:13;47.44;34.89;60.23;;
72686;Laerm;61365;52.162;4.500;2023-02-01T15:36:41;47.50;35.25;55.82;;
72686;Laerm;61365;52.162;4.500;2023-02-01T15:39:23;47.39;35.53;60.03;;
72686;Laerm;61365;52.162;4.500;2023-02-01T15:41:56;47.44;40.16;60.41;;
72686;Laerm;61365;52.162;4.500;2023-02-01T15:44:44;47.45;39.33;59.60;;
72686;Laerm;61365;52.162;4.500;2023-02-01T15:47:28;47.41;35.57;57.92;;
72686;Laerm;61365;52.162;4.500;2023-02-01T15:49:58;47.39;36.10;57.92;;
72686;Laerm;61365;52.162;4.500;2023-02-01T15:52:37;47.43;38.24;58.19;;
72686;Laerm;61365;52.162;4.500;2023-02-01T15:55:18;47.37;40.37;57.11;;